Flight Track Log - Related Links

Times and Time Zones

All times are in EDT time to prevent confusion due to time zone crossing. See the UPS1122 flight status page for this flight to view local times or setup timezone preferences in your user account.

Time Position Orientation Groundspeed Altitude Reporting Facility
EDT Latitude Longitude Course Direction KTS MPH feet Rate Location/Type
Fri 03:47:39 AM 39.8667 -75.2667 37° Northeast 147 169 1,100  Level Philadelphia TRACON
Fri 03:48:33 AM 39.8500 -75.3167 247° West 176 203 2,300 1,842 Climbing Philadelphia TRACON
Fri 03:49:33 AM 39.8000 -75.3667 218° Southwest 234 269 4,600 2,300 Climbing Philadelphia TRACON
Fri 03:50:33 AM 39.7833 -75.2833 105° East 265 305 6,900 2,524 Climbing Philadelphia TRACON
Fri 03:51:39 AM 39.7833 -75.1667 90° East 301 346 9,900 2,048 Climbing Philadelphia TRACON
Fri 03:53:00 AM 39.8110 -74.6724 37° Northeast  Level FlightAware Approximate
Fri 03:54:01 AM 39.7883 -74.8611 89° East 378 435 14,000  Level New York Center
Fri 03:55:00 AM 39.8081 -74.7136 80° East 396 456 16,200 1,966 Climbing New York Center
Fri 03:56:00 AM 39.8881 -74.6206 42° Northeast 395 455 17,900 1,983 Climbing New York Center
Fri 03:57:01 AM 39.9956 -74.5236 35° Northeast 395 455 20,200 1,537 Climbing New York Center
Fri 03:58:01 AM 40.0878 -74.4364 36° Northeast 431 496 21,000 353 Climbing New York Center
Fri 03:59:00 AM 40.1867 -74.3464 35° Northeast 438 504 20,900  Descending New York Center
Fri 04:00:00 AM 40.2872 -74.2536 35° Northeast 443 510 21,000 49 Climbing New York Center
Fri 04:01:03 AM 40.3881 -74.1608 35° Northeast 443 510 21,000  Level New York Center
Fri 04:02:00 AM 40.4886 -74.0675 35° Northeast 443 510 21,000  Level New York Center
Fri 04:03:00 AM 40.5869 -73.9767 35° Northeast 443 510 21,000  Level New York Center
Fri 04:04:00 AM 40.6872 -73.8856 35° Northeast 443 510 21,000  Level New York Center
Fri 04:05:54 AM 40.8781 -73.7111 35° Northeast 440 506 21,000  Level Boston Center
Fri 04:06:54 AM 40.9836 -73.6003 38° Northeast 440 506 21,000 -400 Level Boston Center
Fri 04:07:54 AM 41.0739 -73.5222 33° Northeast 435 501 20,200 -1,850 Descending Boston Center
Fri 04:08:54 AM 41.1792 -73.4192 36° Northeast 427 491 17,300 -2,550 Descending Boston Center
Fri 04:09:54 AM 41.2547 -73.3511 34° Northeast 427 491 15,100 -2,545 Descending Boston Center
Fri 04:11:06 AM 41.3806 -73.2286 36° Northeast 404 465 11,700 -2,050 Descending Boston Center
Fri 04:11:54 AM 41.4539 -73.1686 32° Northeast 391 450 11,000 -667 Descending Boston Center
Fri 04:12:54 AM 41.5272 -73.1056 33° Northeast 329 379 10,500 -1,150 Descending Boston Center
Fri 04:13:54 AM 41.5964 -73.0453 33° Northeast 301 346 8,700 -2,000 Descending Boston Center
Fri 04:14:54 AM 41.6614 -72.9903 32° Northeast 280 322 6,500 -2,200 Descending Boston Center
Fri 04:15:54 AM 41.7242 -72.9353 33° Northeast 273 314 4,300 -2,000 Descending Boston Center
Fri 04:16:54 AM 41.7869 -72.8828 32° Northeast 273 314 2,500 -900 Descending Boston Center
Fri 04:17:54 AM 41.8369 -72.8247 41° Northeast 251 289 2,500 -300 Level Boston Center
Fri 04:18:54 AM 41.8706 -72.7775 46° Northeast 211 243 1,900 -700 Descending Boston Center
Fri 04:19:54 AM 41.9019 -72.7386 43° Northeast 170 196 1,100 -700 Descending Boston Center
Fri 04:20:54 AM 41.9250 -72.7108 42° Northeast 154 177 500 -600 Descending Boston Center
Fri 04:25:00 AM 41.9333 -72.6833 29° Northeast  Level FlightAware Approximate
Fri 04:32:00 AM 41.9392 -72.6834 29° Northeast  Level Estimated
Fri 04:33:00 AM 41.9333 -72.6833 29° Northeast  Level FlightAware Approximate
Fri 04:34:00 AM 41.9392 -72.6834 29° Northeast  Level Estimated
Fri 04:35:00 AM 41.9333 -72.6833 29° Northeast  Level FlightAware Approximate

Login

Don't have an account? Register now (free) for customized features, flight alerts, and more!